createdAt,value
2018-09-16T00:02:12.483Z,77.65
2018-09-16T00:07:14.703Z,77.09
2018-09-16T00:12:16.830Z,77.16
2018-09-16T00:17:18.946Z,77.09
2018-09-16T00:22:21.311Z,77.35
2018-09-16T00:27:23.495Z,77.12
2018-09-16T00:32:31.510Z,77.51
2018-09-16T00:37:33.663Z,76.85
2018-09-16T00:42:35.811Z,77.35
2018-09-16T00:47:38.389Z,77.08
2018-09-16T00:52:41.352Z,77.25
2018-09-16T00:57:43.528Z,77.18
2018-09-16T01:02:45.680Z,76.83
2018-09-16T01:07:47.826Z,77.25
2018-09-16T01:12:49.972Z,77.42
2018-09-16T01:17:52.091Z,77.00
2018-09-16T01:22:54.251Z,77.01
2018-09-16T01:27:56.407Z,76.41
2018-09-16T01:32:58.560Z,76.45
2018-09-16T01:38:06.427Z,76.72
2018-09-16T01:43:08.605Z,76.65
2018-09-16T01:48:10.715Z,76.48
2018-09-16T01:53:12.871Z,76.51
2018-09-16T01:58:15.170Z,76.74
2018-09-16T02:03:17.299Z,76.34
2018-09-16T02:08:19.999Z,75.91
2018-09-16T02:13:22.109Z,76.15
2018-09-16T02:18:24.266Z,76.43
2018-09-16T02:23:26.377Z,75.99
2018-09-16T02:28:28.549Z,76.03
2018-09-16T02:33:30.695Z,75.80
2018-09-16T02:38:32.807Z,76.00
2018-09-16T02:43:34.993Z,76.12
2018-09-16T02:48:37.093Z,76.38
2018-09-16T02:53:39.211Z,75.88
2018-09-16T02:58:41.347Z,76.25
2018-09-16T03:03:43.504Z,75.94
2018-09-16T03:08:45.684Z,76.24
2018-09-16T03:13:47.869Z,75.79
2018-09-16T03:18:49.997Z,76.25
2018-09-16T03:23:52.269Z,76.02
2018-09-16T03:28:54.368Z,76.61
2018-09-16T03:33:56.481Z,76.14
2018-09-16T03:38:58.589Z,76.60
2018-09-16T03:44:00.704Z,76.12
2018-09-16T03:49:02.882Z,76.10
2018-09-16T03:54:05.114Z,76.37
2018-09-16T03:59:07.215Z,76.81
2018-09-16T04:04:09.340Z,76.90
2018-09-16T04:09:11.498Z,77.22
2018-09-16T04:14:14.268Z,77.00
2018-09-16T04:19:16.386Z,77.37
2018-09-16T04:24:18.519Z,77.77
2018-09-16T04:29:20.655Z,78.11
2018-09-16T04:34:22.778Z,78.74
2018-09-16T04:39:24.899Z,79.04
2018-09-16T04:44:26.993Z,78.75
2018-09-16T04:49:29.107Z,79.05
2018-09-16T04:54:31.273Z,78.24
2018-09-16T04:59:33.413Z,79.29
2018-09-16T05:04:35.546Z,79.45
2018-09-16T05:09:37.747Z,79.63
2018-09-16T05:14:39.904Z,79.65
2018-09-16T05:19:42.023Z,79.99
2018-09-16T05:24:44.166Z,79.44
2018-09-16T05:29:46.516Z,79.85
2018-09-16T05:34:48.659Z,79.52
2018-09-16T05:39:51.575Z,79.60
2018-09-16T05:44:54.145Z,79.63
2018-09-16T05:49:56.282Z,80.59
2018-09-16T05:54:58.473Z,80.20
2018-09-16T06:00:00.637Z,80.32
2018-09-16T06:05:02.898Z,80.67
2018-09-16T06:10:05.074Z,80.56
2018-09-16T06:15:07.212Z,80.76
2018-09-16T06:20:09.398Z,80.30
2018-09-16T06:25:11.542Z,80.63
2018-09-16T06:30:13.646Z,80.91
2018-09-16T06:35:15.787Z,80.62
2018-09-16T06:40:17.919Z,80.49
2018-09-16T06:45:20.088Z,81.18
2018-09-16T06:50:22.283Z,81.16
2018-09-16T06:55:24.469Z,81.11
2018-09-16T07:00:26.635Z,80.99
2018-09-16T07:05:28.750Z,80.15
2018-09-16T07:10:31.006Z,80.46
2018-09-16T07:15:33.215Z,79.71
2018-09-16T07:20:35.378Z,80.39
2018-09-16T07:25:37.547Z,80.40
2018-09-16T07:30:39.726Z,79.63
2018-09-16T07:35:41.909Z,80.08
2018-09-16T07:40:44.109Z,79.82
2018-09-16T07:45:46.393Z,79.74
2018-09-16T07:50:48.583Z,79.47
2018-09-16T07:55:50.779Z,79.32
2018-09-16T08:00:52.955Z,79.28
2018-09-16T08:05:55.163Z,79.28
2018-09-16T08:10:57.318Z,79.39
2018-09-16T08:15:59.495Z,78.21
2018-09-16T08:21:01.682Z,78.47
2018-09-16T08:26:03.898Z,77.38
2018-09-16T08:31:06.333Z,77.60
2018-09-16T08:36:08.457Z,77.15
2018-09-16T08:41:10.626Z,76.52
2018-09-16T08:46:12.788Z,76.96
2018-09-16T08:51:14.969Z,77.01
2018-09-16T08:56:17.148Z,76.48
2018-09-16T09:01:19.301Z,75.68
2018-09-16T09:06:21.951Z,76.46
2018-09-16T09:11:24.124Z,76.76
2018-09-16T09:16:26.260Z,74.31
2018-09-16T09:21:28.499Z,73.59
2018-09-16T09:26:30.656Z,73.89
2018-09-16T09:31:32.851Z,72.08
2018-09-16T09:36:35.043Z,72.10
2018-09-16T09:41:38.236Z,73.86
2018-09-16T09:46:40.401Z,69.92
2018-09-16T09:51:42.558Z,69.58
2018-09-16T09:56:44.782Z,70.21
2018-09-16T10:01:46.930Z,70.73
2018-09-16T10:06:49.148Z,68.97
2018-09-16T10:11:51.333Z,69.72
2018-09-16T10:16:53.496Z,68.26
2018-09-16T10:21:55.640Z,68.34
2018-09-16T10:26:57.819Z,66.78
2018-09-16T10:32:00.076Z,66.58
2018-09-16T10:37:02.262Z,66.25
2018-09-16T10:42:04.443Z,68.62
2018-09-16T10:47:06.605Z,67.13
2018-09-16T10:52:09.741Z,66.78
2018-09-16T10:57:11.979Z,65.97
2018-09-16T11:02:14.188Z,66.14
2018-09-16T11:07:17.742Z,60.66
2018-09-16T11:12:20.153Z,60.50
2018-09-16T11:17:22.313Z,60.91
2018-09-16T11:22:24.464Z,60.77
2018-09-16T11:27:26.672Z,59.05
2018-09-16T11:32:28.852Z,59.85
2018-09-16T11:37:31.096Z,60.25
2018-09-16T11:42:33.292Z,58.92
2018-09-16T11:47:35.461Z,58.22
2018-09-16T11:52:37.623Z,58.60
2018-09-16T11:57:39.800Z,57.83
2018-09-16T12:02:41.947Z,59.94
2018-09-16T12:07:44.108Z,57.36
2018-09-16T12:12:46.355Z,59.43
2018-09-16T12:17:48.575Z,56.89
2018-09-16T12:22:50.800Z,57.59
2018-09-16T12:27:53.049Z,53.76
2018-09-16T12:32:55.229Z,51.25
2018-09-16T12:37:57.356Z,52.50
2018-09-16T12:42:59.536Z,52.31
2018-09-16T12:48:01.742Z,51.43
2018-09-16T12:53:04.546Z,53.07
2018-09-16T12:58:06.755Z,53.66
2018-09-16T13:03:08.899Z,51.96
2018-09-16T13:08:11.120Z,53.70
2018-09-16T13:13:13.402Z,53.73
2018-09-16T13:18:15.585Z,48.64
2018-09-16T13:23:17.797Z,47.40
2018-09-16T13:28:20.026Z,49.18
2018-09-16T13:33:22.314Z,49.44
2018-09-16T13:38:24.465Z,50.18
2018-09-16T13:43:26.711Z,49.04
2018-09-16T13:48:28.911Z,49.40
2018-09-16T13:53:31.107Z,47.54
2018-09-16T13:58:33.324Z,48.27
2018-09-16T14:03:35.550Z,47.58
2018-09-16T14:08:37.735Z,47.76
2018-09-16T14:13:39.992Z,48.63
2018-09-16T14:18:42.145Z,47.24
2018-09-16T14:23:44.289Z,49.81
2018-09-16T14:28:46.464Z,49.54
2018-09-16T14:33:48.712Z,49.37
2018-09-16T14:38:50.898Z,48.58
2018-09-16T14:43:53.035Z,46.36
2018-09-16T14:48:55.239Z,48.32
2018-09-16T14:53:57.421Z,49.48
2018-09-16T14:58:59.616Z,50.62
2018-09-16T15:04:01.747Z,49.49
2018-09-16T15:09:05.782Z,50.48
2018-09-16T15:14:07.956Z,51.45
2018-09-16T15:19:11.472Z,51.75
2018-09-16T15:24:13.820Z,53.01
2018-09-16T15:29:16.094Z,53.35
2018-09-16T15:34:18.268Z,54.30
2018-09-16T15:39:20.487Z,54.32
2018-09-16T15:44:23.576Z,54.60
2018-09-16T15:49:25.901Z,54.69
2018-09-16T15:54:28.104Z,55.24
2018-09-16T15:59:30.290Z,56.27
2018-09-16T16:04:33.628Z,55.80
2018-09-16T16:09:35.876Z,57.17
2018-09-16T16:14:38.081Z,56.74
2018-09-16T16:19:40.338Z,57.24
2018-09-16T16:24:42.537Z,57.62
2018-09-16T16:29:44.805Z,58.04
2018-09-16T16:34:47.022Z,58.36
2018-09-16T16:39:49.202Z,58.71
2018-09-16T16:44:51.528Z,59.57
2018-09-16T16:49:53.662Z,60.02
2018-09-16T16:54:55.835Z,60.45
2018-09-16T16:59:58.066Z,61.19
2018-09-16T17:05:00.355Z,61.10
2018-09-16T17:10:02.585Z,61.42
2018-09-16T17:15:04.991Z,62.27
2018-09-16T17:25:22.364Z,64.34
2018-09-16T17:30:24.625Z,65.60
2018-09-16T17:35:26.847Z,66.16
2018-09-16T17:40:29.211Z,66.30
2018-09-16T17:45:31.495Z,66.62
2018-09-16T17:50:33.938Z,65.75
2018-09-16T17:55:36.877Z,65.77
2018-09-16T18:00:39.220Z,65.99
2018-09-16T18:05:41.612Z,66.54
2018-09-16T18:10:43.911Z,66.29
2018-09-16T18:15:46.294Z,66.38
2018-09-16T18:20:49.398Z,66.32
2018-09-16T18:25:51.916Z,66.74
2018-09-16T18:30:54.721Z,67.63
2018-09-16T18:35:57.291Z,67.90
2018-09-16T18:41:00.560Z,68.54
2018-09-16T18:46:03.766Z,68.47
2018-09-16T18:51:07.308Z,68.41
2018-09-16T18:56:10.241Z,68.32
2018-09-16T19:01:14.092Z,68.59
2018-09-16T19:06:16.837Z,69.07
2018-09-16T19:11:20.092Z,69.57
2018-09-16T19:16:24.798Z,68.09
2018-09-16T19:21:27.807Z,68.08
2018-09-16T19:26:31.488Z,67.39
2018-09-16T19:31:34.721Z,69.01
2018-09-16T19:36:37.752Z,68.71
2018-09-16T19:41:41.256Z,69.26
2018-09-16T19:46:43.970Z,68.68
2018-09-16T19:51:46.470Z,69.22
2018-09-16T19:56:49.274Z,68.49
2018-09-16T20:01:52.023Z,68.42
2018-09-16T20:06:54.661Z,68.31
2018-09-16T20:11:57.088Z,68.18
2018-09-16T20:16:59.728Z,68.29
2018-09-16T20:22:02.084Z,67.65
2018-09-16T20:27:04.901Z,67.37
2018-09-16T20:32:07.187Z,67.81
2018-09-16T20:37:09.391Z,67.65
2018-09-16T20:42:11.571Z,67.37
2018-09-16T20:47:14.076Z,66.90
2018-09-16T20:52:16.297Z,66.90
2018-09-16T20:57:18.534Z,66.97
2018-09-16T21:02:20.695Z,67.01
2018-09-16T21:07:22.948Z,67.02
2018-09-16T21:12:25.121Z,67.01
2018-09-16T21:17:27.337Z,66.87
2018-09-16T21:22:29.521Z,67.64
2018-09-16T21:27:31.690Z,67.11
2018-09-16T21:32:33.876Z,67.35
2018-09-16T21:37:36.060Z,67.65
2018-09-16T21:42:38.294Z,68.28
2018-09-16T21:47:40.541Z,66.99
2018-09-16T21:52:42.928Z,67.56
2018-09-16T21:57:45.115Z,67.68
2018-09-16T22:02:47.234Z,67.36
2018-09-16T22:07:49.534Z,67.55
2018-09-16T22:12:51.723Z,67.53
2018-09-16T22:17:53.923Z,67.33
2018-09-16T22:22:56.074Z,67.21
2018-09-16T22:27:58.231Z,66.72
2018-09-16T22:33:00.534Z,66.85
2018-09-16T22:38:02.699Z,67.08
2018-09-16T22:43:05.181Z,66.97
2018-09-16T22:48:07.534Z,67.63
2018-09-16T22:53:09.654Z,67.39
2018-09-16T22:58:11.796Z,67.73
2018-09-16T23:03:13.942Z,68.57
2018-09-16T23:08:16.091Z,68.19
2018-09-16T23:13:18.309Z,68.85
2018-09-16T23:18:20.527Z,68.90
2018-09-16T23:23:22.679Z,68.29
2018-09-16T23:28:24.841Z,68.90
2018-09-16T23:33:26.967Z,68.55
2018-09-16T23:38:29.152Z,69.54
2018-09-16T23:43:31.299Z,69.00
2018-09-16T23:48:33.478Z,69.28
2018-09-16T23:53:35.634Z,68.83
2018-09-16T23:58:37.733Z,69.50
